createdAt,value
2022-09-27T00:01:08.480Z,49.27
2022-09-27T00:03:37.801Z,48.90
2022-09-27T00:06:07.997Z,49.67
2022-09-27T00:08:36.550Z,49.33
2022-09-27T00:11:05.335Z,50.87
2022-09-27T00:13:33.217Z,50.07
2022-09-27T00:16:03.189Z,48.53
2022-09-27T00:18:31.238Z,49.17
2022-09-27T00:21:05.959Z,48.87
2022-09-27T00:23:34.336Z,48.20
2022-09-27T00:26:02.421Z,48.47
2022-09-27T00:28:30.914Z,49.20
2022-09-27T00:30:59.176Z,50.97
2022-09-27T00:33:27.280Z,49.17
2022-09-27T00:35:54.997Z,51.43
2022-09-27T00:38:23.983Z,50.63
2022-09-27T00:40:51.682Z,47.57
2022-09-27T00:43:21.389Z,49.30
2022-09-27T00:45:51.205Z,50.20
2022-09-27T00:48:21.375Z,50.73
2022-09-27T00:50:51.131Z,50.07
2022-09-27T00:53:21.451Z,48.90
2022-09-27T00:55:53.261Z,51.83
2022-09-27T00:58:23.071Z,50.63
2022-09-27T01:00:54.155Z,51.50
2022-09-27T01:03:26.635Z,50.77
2022-09-27T01:05:55.015Z,51.53
2022-09-27T01:08:22.608Z,48.77
2022-09-27T01:10:59.098Z,51.83
2022-09-27T01:13:32.629Z,49.20
2022-09-27T01:16:04.480Z,51.80
2022-09-27T01:18:35.874Z,48.67
2022-09-27T01:21:15.464Z,49.03
2022-09-27T01:24:15.771Z,49.93
2022-09-27T01:27:04.471Z,53.47
2022-09-27T01:29:37.412Z,52.17
2022-09-27T01:32:09.424Z,53.37
2022-09-27T01:34:44.928Z,50.63
2022-09-27T01:37:20.784Z,50.17
2022-09-27T01:39:52.203Z,51.17
2022-09-27T01:42:23.762Z,51.90
2022-09-27T01:44:54.108Z,49.57
2022-09-27T01:47:24.535Z,48.57
2022-09-27T01:49:56.736Z,51.13
2022-09-27T01:52:28.586Z,51.27
2022-09-27T01:54:58.712Z,52.37
2022-09-27T01:57:28.717Z,51.57
2022-09-27T02:00:00.334Z,50.43
2022-09-27T02:02:31.049Z,50.43
2022-09-27T02:05:01.435Z,51.17
2022-09-27T02:07:32.955Z,52.83
2022-09-27T02:10:04.901Z,48.60
2022-09-27T02:12:38.199Z,49.63
2022-09-27T02:15:08.320Z,51.13
2022-09-27T02:17:43.468Z,50.70
2022-09-27T02:20:17.116Z,50.30
2022-09-27T02:22:48.869Z,50.07
2022-09-27T02:25:21.839Z,55.67
2022-09-27T02:27:55.943Z,50.03
2022-09-27T02:30:23.603Z,51.20
2022-09-27T02:32:52.901Z,52.33
2022-09-27T02:35:25.041Z,51.87
2022-09-27T02:37:53.661Z,53.20
2022-09-27T02:40:21.471Z,50.30
2022-09-27T02:42:49.238Z,51.80
2022-09-27T02:45:18.595Z,50.60
2022-09-27T02:48:04.970Z,53.80
2022-09-27T02:50:43.051Z,50.63
2022-09-27T02:53:17.962Z,51.60
2022-09-27T02:55:52.241Z,51.77
2022-09-27T02:58:26.696Z,49.63
2022-09-27T03:00:59.387Z,51.63
2022-09-27T03:03:32.739Z,48.90
2022-09-27T03:06:03.626Z,52.93
2022-09-27T03:08:31.375Z,52.40
2022-09-27T03:10:59.017Z,53.27
2022-09-27T03:13:26.752Z,52.10
2022-09-27T03:15:57.109Z,57.07
2022-09-27T03:18:29.972Z,50.47
2022-09-27T03:20:57.590Z,49.17
2022-09-27T03:23:25.246Z,50.50
2022-09-27T03:25:52.877Z,52.37
2022-09-27T03:28:20.592Z,51.03
2022-09-27T03:30:49.235Z,55.40
2022-09-27T03:33:16.888Z,56.77
2022-09-27T03:35:45.887Z,51.03
2022-09-27T03:38:13.711Z,53.27
2022-09-27T03:40:41.456Z,48.33
2022-09-27T03:43:09.136Z,49.43
2022-09-27T03:45:36.773Z,52.20
2022-09-27T03:48:04.385Z,50.03
2022-09-27T03:50:31.991Z,50.60
2022-09-27T03:53:00.960Z,49.87
2022-09-27T03:55:28.679Z,50.03
2022-09-27T03:57:56.259Z,51.10
2022-09-27T04:00:25.236Z,50.07
2022-09-27T04:02:52.989Z,54.20
2022-09-27T04:05:20.632Z,51.77
2022-09-27T04:07:49.350Z,50.80
2022-09-27T04:10:18.326Z,49.70
2022-09-27T04:12:46.244Z,55.50
2022-09-27T04:15:13.988Z,52.17
2022-09-27T04:17:43.066Z,52.97
2022-09-27T04:20:11.135Z,50.87
2022-09-27T04:22:40.464Z,51.20
2022-09-27T04:25:09.233Z,52.00
2022-09-27T04:27:38.695Z,50.63
2022-09-27T04:30:07.753Z,51.30
2022-09-27T04:32:35.344Z,49.20
2022-09-27T04:35:20.608Z,50.87
2022-09-27T04:37:48.431Z,51.37
2022-09-27T04:40:17.045Z,53.50
2022-09-27T04:42:46.052Z,33.83
2022-09-27T04:45:13.882Z,40.57
2022-09-27T04:47:44.000Z,40.67
2022-09-27T04:50:11.862Z,39.60
2022-09-27T04:52:40.244Z,42.53
2022-09-27T04:55:09.615Z,42.03
2022-09-27T04:57:37.905Z,42.10
2022-09-27T05:00:08.508Z,43.30
2022-09-27T05:02:36.571Z,43.10
2022-09-27T05:05:06.601Z,42.50
2022-09-27T05:07:35.499Z,41.60
2022-09-27T05:10:03.115Z,45.93
2022-09-27T05:12:30.731Z,43.90
2022-09-27T05:14:58.364Z,43.57
2022-09-27T05:17:27.432Z,44.27
2022-09-27T05:19:55.051Z,44.00
2022-09-27T05:22:23.055Z,42.03
2022-09-27T05:24:50.672Z,42.90
2022-09-27T05:27:20.194Z,43.43
2022-09-27T05:29:48.091Z,43.80
2022-09-27T05:32:16.635Z,45.00
2022-09-27T05:34:45.620Z,46.40
2022-09-27T05:37:13.228Z,44.47
2022-09-27T05:39:40.907Z,44.23
2022-09-27T05:42:10.279Z,44.30
2022-09-27T05:44:38.577Z,41.70
2022-09-27T05:47:06.328Z,42.63
2022-09-27T05:49:34.371Z,43.40
2022-09-27T05:52:03.560Z,42.60
2022-09-27T05:54:31.879Z,43.80
2022-09-27T05:57:00.313Z,44.40
2022-09-27T05:59:28.594Z,41.70
2022-09-27T06:01:56.402Z,44.27
2022-09-27T06:04:24.102Z,44.00
2022-09-27T06:06:51.713Z,43.90
2022-09-27T06:09:20.660Z,43.63
2022-09-27T06:11:48.293Z,43.43
2022-09-27T06:14:16.186Z,45.13
2022-09-27T06:16:45.599Z,46.70
2022-09-27T06:19:13.299Z,43.90
2022-09-27T06:21:41.083Z,44.00
2022-09-27T06:24:09.047Z,48.60
2022-09-27T06:26:38.115Z,45.10
2022-09-27T06:29:06.012Z,43.80
2022-09-27T06:31:33.577Z,42.00
2022-09-27T06:34:01.378Z,42.73
2022-09-27T06:36:28.988Z,45.23
2022-09-27T06:38:56.606Z,47.43
2022-09-27T06:41:24.296Z,43.57
2022-09-27T06:43:53.450Z,43.50
2022-09-27T06:46:21.155Z,45.87
2022-09-27T06:48:48.787Z,43.60
2022-09-27T06:51:16.461Z,44.13
2022-09-27T06:53:44.075Z,43.20
2022-09-27T06:56:12.045Z,46.63
2022-09-27T06:58:57.179Z,43.60
2022-09-27T07:01:30.200Z,43.10
2022-09-27T07:03:58.800Z,44.30
2022-09-27T07:06:26.776Z,45.47
2022-09-27T07:08:55.024Z,43.83
2022-09-27T07:11:23.297Z,44.80
2022-09-27T07:13:51.748Z,44.23
2022-09-27T07:16:19.535Z,44.50
2022-09-27T07:18:49.152Z,45.30
2022-09-27T07:21:16.966Z,44.70
2022-09-27T07:23:44.571Z,45.57
2022-09-27T07:26:12.619Z,43.23
2022-09-27T07:28:41.594Z,43.90
2022-09-27T07:31:09.627Z,43.17
2022-09-27T07:33:42.364Z,44.10
2022-09-27T07:36:13.726Z,44.00
2022-09-27T07:38:41.347Z,42.87
2022-09-27T07:41:10.055Z,41.60
2022-09-27T07:43:37.681Z,43.40
2022-09-27T07:46:05.306Z,43.50
2022-09-27T07:48:33.170Z,42.20
2022-09-27T07:51:00.946Z,43.53
2022-09-27T07:53:29.895Z,44.70
2022-09-27T07:55:57.485Z,43.33
2022-09-27T07:58:25.086Z,43.13
2022-09-27T08:00:56.178Z,45.13
2022-09-27T08:03:23.802Z,43.83
2022-09-27T08:05:51.407Z,44.90
2022-09-27T08:08:19.048Z,45.33
2022-09-27T08:10:48.006Z,47.27
2022-09-27T08:13:17.881Z,44.70
2022-09-27T08:15:45.526Z,51.40
2022-09-27T08:18:13.111Z,43.90
2022-09-27T08:20:41.090Z,44.63
2022-09-27T08:23:08.794Z,46.20
2022-09-27T08:25:36.522Z,45.30
2022-09-27T08:28:05.710Z,44.10
2022-09-27T08:30:33.394Z,45.67
2022-09-27T08:33:03.380Z,44.30
2022-09-27T08:35:33.771Z,44.30
2022-09-27T08:38:02.735Z,45.10
2022-09-27T08:40:39.158Z,48.93
2022-09-27T08:43:15.094Z,43.70
2022-09-27T08:45:55.694Z,49.87
2022-09-27T08:48:25.152Z,45.20
2022-09-27T08:50:52.883Z,45.67
2022-09-27T08:53:23.251Z,44.83
2022-09-27T08:55:53.637Z,46.87
2022-09-27T08:58:27.140Z,43.07
2022-09-27T09:00:56.326Z,46.93
2022-09-27T09:03:26.064Z,45.60
2022-09-27T09:06:08.364Z,44.57
2022-09-27T09:08:44.390Z,45.10
2022-09-27T09:11:41.836Z,43.80
2022-09-27T09:14:34.008Z,47.37
2022-09-27T09:17:06.007Z,43.23
2022-09-27T09:19:44.439Z,46.03
2022-09-27T09:22:28.706Z,43.90
2022-09-27T09:25:07.220Z,48.70
2022-09-27T09:27:39.887Z,44.63
2022-09-27T09:30:23.146Z,47.90
2022-09-27T09:33:06.359Z,46.23
2022-09-27T09:35:38.364Z,43.43
2022-09-27T09:38:08.153Z,46.30
2022-09-27T09:40:40.394Z,46.00
2022-09-27T09:43:12.360Z,45.00
2022-09-27T09:45:42.994Z,48.50
2022-09-27T09:48:16.572Z,48.97
2022-09-27T09:50:46.897Z,45.30
2022-09-27T09:53:17.580Z,43.60
2022-09-27T09:55:48.938Z,46.90
2022-09-27T09:58:22.743Z,45.33
2022-09-27T10:00:53.157Z,49.90
2022-09-27T10:03:20.880Z,46.43
2022-09-27T10:05:48.548Z,46.80
2022-09-27T10:08:19.723Z,45.43
2022-09-27T10:10:47.756Z,46.83
2022-09-27T10:13:17.395Z,44.63
2022-09-27T10:15:47.468Z,49.30
2022-09-27T10:18:19.119Z,44.33
2022-09-27T10:20:50.607Z,45.90
2022-09-27T10:23:21.036Z,45.67
2022-09-27T10:25:52.164Z,48.33
2022-09-27T10:28:37.128Z,46.70
2022-09-27T10:31:06.335Z,44.20
2022-09-27T10:33:36.235Z,45.37
2022-09-27T10:36:04.418Z,47.57
2022-09-27T10:38:33.778Z,44.27
2022-09-27T10:41:18.276Z,45.10
2022-09-27T10:43:46.356Z,46.77
2022-09-27T10:46:19.044Z,47.93
2022-09-27T10:48:48.032Z,47.20
2022-09-27T10:51:26.621Z,46.50
2022-09-27T10:53:58.610Z,46.47
2022-09-27T10:56:29.713Z,45.93
2022-09-27T10:58:59.099Z,44.47
2022-09-27T11:01:27.318Z,45.87
2022-09-27T11:03:59.155Z,45.63
2022-09-27T11:06:30.711Z,47.50
2022-09-27T11:09:11.921Z,48.80
2022-09-27T11:11:39.540Z,46.37
2022-09-27T11:14:19.339Z,48.50
2022-09-27T11:17:04.258Z,47.37
2022-09-27T11:19:45.714Z,45.70
2022-09-27T11:22:24.877Z,46.47
2022-09-27T11:25:03.606Z,46.77
2022-09-27T11:27:39.640Z,46.70
2022-09-27T11:30:11.158Z,46.63
2022-09-27T11:32:51.795Z,47.33
2022-09-27T11:35:33.258Z,45.90
2022-09-27T11:38:10.183Z,47.87
2022-09-27T11:42:01.199Z,48.00
2022-09-27T11:44:38.737Z,44.87
2022-09-27T11:47:12.901Z,45.53
2022-09-27T11:49:54.541Z,44.43
2022-09-27T11:52:31.087Z,45.17
2022-09-27T11:55:17.668Z,45.30
2022-09-27T11:57:55.134Z,45.40
2022-09-27T12:00:24.518Z,46.57
2022-09-27T12:03:20.915Z,45.03
2022-09-27T12:06:07.211Z,44.83
2022-09-27T12:08:48.441Z,46.17
2022-09-27T12:11:19.419Z,44.30
2022-09-27T12:13:50.287Z,45.70
2022-09-27T12:16:19.258Z,44.50
2022-09-27T12:18:51.262Z,45.60
2022-09-27T12:21:20.040Z,46.97
2022-09-27T12:23:50.249Z,44.43
2022-09-27T12:26:20.166Z,44.90
2022-09-27T12:28:52.455Z,44.43
2022-09-27T12:31:29.812Z,44.43
2022-09-27T12:34:04.505Z,44.83
2022-09-27T12:36:38.405Z,47.47
2022-09-27T12:39:12.078Z,44.13
2022-09-27T12:41:41.740Z,45.73
2022-09-27T12:44:11.699Z,47.73
2022-09-27T12:46:48.459Z,45.00
2022-09-27T12:49:21.640Z,44.20
2022-09-27T12:51:52.498Z,45.87
2022-09-27T12:54:32.322Z,48.57
2022-09-27T12:57:04.652Z,46.10
2022-09-27T12:59:45.660Z,45.87
2022-09-27T13:02:39.378Z,43.90
2022-09-27T13:05:29.323Z,45.83
2022-09-27T13:08:06.258Z,44.07
2022-09-27T13:10:42.588Z,44.77
2022-09-27T13:13:12.850Z,44.47
2022-09-27T13:15:45.141Z,46.20
2022-09-27T13:18:32.257Z,45.47
2022-09-27T13:20:59.755Z,47.30
2022-09-27T13:24:00.489Z,47.10
2022-09-27T13:26:50.329Z,43.77
2022-09-27T13:29:27.128Z,45.50
2022-09-27T13:32:23.955Z,46.50
2022-09-27T13:34:53.623Z,45.30
2022-09-27T13:37:50.535Z,44.83
2022-09-27T13:40:30.585Z,44.50
2022-09-27T13:43:29.472Z,43.80
2022-09-27T13:45:58.348Z,44.17
2022-09-27T13:48:30.300Z,46.43
2022-09-27T13:51:02.034Z,48.53
2022-09-27T13:53:33.201Z,45.80
2022-09-27T13:56:00.747Z,44.90
2022-09-27T13:58:36.777Z,47.07
2022-09-27T14:01:07.195Z,45.43
2022-09-27T14:04:25.690Z,45.30
2022-09-27T14:06:58.043Z,46.27
2022-09-27T14:09:28.596Z,47.00
2022-09-27T14:11:58.795Z,44.90
2022-09-27T14:14:30.166Z,48.40
2022-09-27T14:16:59.956Z,47.77
2022-09-27T14:19:28.024Z,46.80
2022-09-27T14:22:14.180Z,48.60
2022-09-27T14:24:47.576Z,46.10
2022-09-27T14:27:18.126Z,46.63
2022-09-27T14:29:48.839Z,55.77
2022-09-27T14:32:18.560Z,47.47
2022-09-27T14:34:46.486Z,48.10
2022-09-27T14:37:26.278Z,44.47
2022-09-27T14:39:59.352Z,44.97
2022-09-27T14:42:28.592Z,45.80
2022-09-27T14:44:57.376Z,46.50
2022-09-27T14:47:26.087Z,45.00
2022-09-27T14:49:55.069Z,46.60
2022-09-27T14:52:27.767Z,45.30
2022-09-27T14:54:59.902Z,46.67
2022-09-27T14:57:28.603Z,46.50
2022-09-27T14:59:57.609Z,46.47
2022-09-27T15:02:26.371Z,45.03
2022-09-27T15:04:54.682Z,48.83
2022-09-27T15:07:23.939Z,43.73
2022-09-27T15:09:52.442Z,45.17
2022-09-27T15:12:25.292Z,45.33
2022-09-27T15:14:55.087Z,46.40
2022-09-27T15:17:22.977Z,45.77
2022-09-27T15:20:01.119Z,45.40
2022-09-27T15:22:38.416Z,46.07
2022-09-27T15:25:09.016Z,46.53
2022-09-27T15:27:36.544Z,50.00
2022-09-27T15:30:05.587Z,45.13
2022-09-27T15:32:33.084Z,45.80
2022-09-27T15:35:08.079Z,46.07
2022-09-27T15:37:38.547Z,42.87
2022-09-27T15:41:00.894Z,44.47
2022-09-27T15:43:31.413Z,46.43
2022-09-27T15:46:02.875Z,45.80
2022-09-27T15:48:32.067Z,43.90
2022-09-27T15:51:00.573Z,46.90
2022-09-27T15:53:47.205Z,47.43
2022-09-27T15:56:16.512Z,43.90
2022-09-27T15:58:44.808Z,45.20
2022-09-27T16:01:18.208Z,46.43
2022-09-27T16:03:45.863Z,48.03
2022-09-27T16:06:14.728Z,48.33
2022-09-27T16:08:43.720Z,50.00
2022-09-27T16:11:15.596Z,45.17
2022-09-27T16:13:43.440Z,45.20
2022-09-27T16:16:16.972Z,45.77
2022-09-27T16:18:45.068Z,44.40
2022-09-27T16:21:12.780Z,47.00
2022-09-27T16:23:40.383Z,46.67
2022-09-27T16:26:08.416Z,46.10
2022-09-27T16:28:37.342Z,46.40
2022-09-27T16:31:05.703Z,45.10
2022-09-27T16:33:33.890Z,47.87
2022-09-27T16:36:02.297Z,47.60
2022-09-27T16:38:30.234Z,46.27
2022-09-27T16:41:02.468Z,46.77
2022-09-27T16:43:31.389Z,45.20
2022-09-27T16:46:07.160Z,49.13
2022-09-27T16:48:34.839Z,45.03
2022-09-27T16:51:24.979Z,43.37
2022-09-27T16:53:52.492Z,48.37
2022-09-27T16:56:20.359Z,45.73
2022-09-27T16:58:48.533Z,45.33
2022-09-27T17:01:17.517Z,47.07
2022-09-27T17:03:45.709Z,45.57
2022-09-27T17:06:13.226Z,45.10
2022-09-27T17:08:40.720Z,45.77
2022-09-27T17:11:08.526Z,45.17
2022-09-27T17:13:36.008Z,47.13
2022-09-27T17:16:05.959Z,45.73
2022-09-27T17:18:34.872Z,45.70
2022-09-27T17:21:03.390Z,45.80
2022-09-27T17:23:31.066Z,46.50
2022-09-27T17:26:03.943Z,46.70
2022-09-27T17:28:31.475Z,44.77
2022-09-27T17:31:08.641Z,45.83
2022-09-27T17:33:43.295Z,49.60
2022-09-27T17:36:12.280Z,49.17
2022-09-27T17:38:40.322Z,48.97
2022-09-27T17:41:11.347Z,48.07
2022-09-27T17:43:43.561Z,48.77
2022-09-27T17:46:11.481Z,47.07
2022-09-27T17:48:57.959Z,46.67
2022-09-27T17:51:25.472Z,49.40
2022-09-27T17:53:53.206Z,47.37
2022-09-27T17:56:20.718Z,44.00
2022-09-27T17:58:48.828Z,47.43
2022-09-27T18:01:17.480Z,48.90
2022-09-27T18:03:46.563Z,50.17
2022-09-27T18:06:16.112Z,47.97
2022-09-27T18:08:43.763Z,48.67
2022-09-27T18:11:13.142Z,47.10
2022-09-27T18:13:43.863Z,46.93
2022-09-27T18:16:13.207Z,45.60
2022-09-27T18:18:42.286Z,47.83
2022-09-27T18:21:13.983Z,49.77
2022-09-27T18:23:42.055Z,47.53
2022-09-27T18:26:10.366Z,47.53
2022-09-27T18:28:39.289Z,48.50
2022-09-27T18:31:09.022Z,48.87
2022-09-27T18:33:37.528Z,48.27
2022-09-27T18:36:06.871Z,50.70
2022-09-27T18:38:36.207Z,47.23
2022-09-27T18:41:08.033Z,50.67
2022-09-27T18:43:38.865Z,47.43
2022-09-27T18:46:34.028Z,47.57
2022-09-27T18:48:58.399Z,49.63
2022-09-27T18:51:27.310Z,51.77
2022-09-27T18:53:58.336Z,48.63
2022-09-27T18:56:26.843Z,50.43
2022-09-27T18:58:54.960Z,50.43
2022-09-27T19:01:23.171Z,49.63
2022-09-27T19:03:50.835Z,50.50
2022-09-27T19:06:20.030Z,50.50
2022-09-27T19:08:47.967Z,50.73
2022-09-27T19:11:18.311Z,46.57
2022-09-27T19:13:51.562Z,49.83
2022-09-27T19:16:20.813Z,49.70
2022-09-27T19:18:48.843Z,49.57
2022-09-27T19:21:18.057Z,50.90
2022-09-27T19:23:45.959Z,51.13
2022-09-27T19:26:17.932Z,47.20
2022-09-27T19:28:45.978Z,50.37
2022-09-27T19:31:14.670Z,46.40
2022-09-27T19:33:42.667Z,49.47
2022-09-27T19:36:11.586Z,46.07
2022-09-27T19:38:39.570Z,45.50
2022-09-27T19:41:09.139Z,45.77
2022-09-27T19:43:38.131Z,48.93
2022-09-27T19:46:06.021Z,46.23
2022-09-27T19:48:34.619Z,46.87
2022-09-27T19:51:02.408Z,45.70
2022-09-27T19:53:32.298Z,44.90
2022-09-27T19:56:00.611Z,45.03
2022-09-27T19:58:29.456Z,45.43
2022-09-27T20:01:06.341Z,46.17
2022-09-27T20:03:34.551Z,46.20
2022-09-27T20:06:03.128Z,45.00
2022-09-27T20:08:31.164Z,50.10
2022-09-27T20:11:05.921Z,48.10
2022-09-27T20:13:34.514Z,45.73
2022-09-27T20:16:05.056Z,45.40
2022-09-27T20:18:32.659Z,44.30
2022-09-27T20:21:01.392Z,41.97
2022-09-27T20:23:29.494Z,43.83
2022-09-27T20:26:01.327Z,43.03
2022-09-27T20:28:28.993Z,44.57
2022-09-27T20:30:58.186Z,45.43
2022-09-27T20:33:43.688Z,46.17
2022-09-27T20:36:12.804Z,44.80
2022-09-27T20:38:41.211Z,44.33
2022-09-27T20:41:09.218Z,45.33
2022-09-27T20:43:36.871Z,45.73
2022-09-27T20:46:05.930Z,47.10
2022-09-27T20:48:35.107Z,44.40
2022-09-27T20:51:04.922Z,46.63
2022-09-27T20:53:32.867Z,45.03
2022-09-27T20:56:02.624Z,46.97
2022-09-27T20:58:30.914Z,45.80
2022-09-27T21:00:59.024Z,47.80
2022-09-27T21:03:26.553Z,47.07
2022-09-27T21:05:55.940Z,46.07
2022-09-27T21:08:23.970Z,46.23
2022-09-27T21:10:53.754Z,47.47
2022-09-27T21:13:21.614Z,46.13
2022-09-27T21:15:49.243Z,53.43
2022-09-27T21:18:19.452Z,45.47
2022-09-27T21:20:46.945Z,46.43
2022-09-27T21:23:15.811Z,46.17
2022-09-27T21:25:43.759Z,47.47
2022-09-27T21:28:11.699Z,46.27
2022-09-27T21:30:39.200Z,46.37
2022-09-27T21:33:06.688Z,47.17
2022-09-27T21:35:34.191Z,46.30
2022-09-27T21:38:01.725Z,51.40
2022-09-27T21:40:31.389Z,51.27
2022-09-27T21:42:58.923Z,51.80
2022-09-27T21:45:26.432Z,50.03
2022-09-27T21:47:53.913Z,54.80
2022-09-27T21:50:21.448Z,50.40
2022-09-27T21:52:49.896Z,52.03
2022-09-27T21:55:17.420Z,56.70
2022-09-27T21:57:46.247Z,53.67
2022-09-27T22:00:14.703Z,51.50
2022-09-27T22:02:42.817Z,53.90
2022-09-27T22:05:10.690Z,49.07
2022-09-27T22:07:38.543Z,50.50
2022-09-27T22:10:07.149Z,51.50
2022-09-27T22:12:34.647Z,49.17
2022-09-27T22:15:03.586Z,49.07
2022-09-27T22:17:31.118Z,49.97
2022-09-27T22:19:58.612Z,50.13
2022-09-27T22:22:26.120Z,49.80
2022-09-27T22:24:53.972Z,51.43
2022-09-27T22:28:11.659Z,50.03
2022-09-27T22:30:39.184Z,49.40
2022-09-27T22:33:06.683Z,50.67
2022-09-27T22:35:34.399Z,50.80
2022-09-27T22:38:02.113Z,50.37
2022-09-27T22:40:30.403Z,49.10
2022-09-27T22:42:57.920Z,50.20
2022-09-27T22:45:27.304Z,49.70
2022-09-27T22:47:54.788Z,54.67
2022-09-27T22:50:22.390Z,51.57
2022-09-27T22:52:49.871Z,51.67
2022-09-27T22:55:17.531Z,50.50
2022-09-27T22:57:45.036Z,52.53
2022-09-27T23:00:13.783Z,52.70
2022-09-27T23:02:42.632Z,51.10
2022-09-27T23:05:10.338Z,49.00
2022-09-27T23:07:37.939Z,49.57
2022-09-27T23:10:06.815Z,51.43
2022-09-27T23:12:34.770Z,49.50
2022-09-27T23:15:02.292Z,50.17
2022-09-27T23:17:29.775Z,49.73
2022-09-27T23:19:58.614Z,50.53
2022-09-27T23:22:26.115Z,51.23
2022-09-27T23:24:53.599Z,50.67
2022-09-27T23:27:38.852Z,51.80
2022-09-27T23:30:07.125Z,51.73
2022-09-27T23:32:34.647Z,49.53
2022-09-27T23:35:03.510Z,50.07
2022-09-27T23:37:31.087Z,49.90
2022-09-27T23:39:58.614Z,51.53
2022-09-27T23:42:26.952Z,51.63
2022-09-27T23:44:55.704Z,52.27
2022-09-27T23:47:23.264Z,49.87
2022-09-27T23:49:51.134Z,51.23
2022-09-27T23:52:20.004Z,51.30
2022-09-27T23:54:47.847Z,50.30
2022-09-27T23:57:15.372Z,49.90
2022-09-27T23:59:42.930Z,49.63
